Summit, South Carolina
Current Conditions -  °F | °C
As of 5:56 AM on Wednesday 22 Oct 2014 (Local Time) from KCAE Reporting Station
Clear Clear  
Wind Chill: 53°   Ceiling: Unl
Heat Index: 53°   Visibility: 10mi
Dew Point: 40°   Wind: 3mph
Humidity: 61%   Direction: NA
Pressure: 30.01"   Gusts: NA
Location:  33.8822°N, 81.433°W
Report Text: KCAE 220956Z VRB03KT 10SM CLR 12/04 A3001 RMK AO2 SLP158 T01170044
Loading
Personal Weather Stations






























Interactive Weather Map
Tropical Storm Tracking
New forecast layout! Learn more

10-Day Weather Forecast

Advertisements
Track Severe Weather on mobile